createdAt,value
2022-11-10T00:02:08.947Z,101659.84
2022-11-10T00:04:36.684Z,101666.28
2022-11-10T00:07:04.439Z,101673.56
2022-11-10T00:09:33.585Z,101681.66
2022-11-10T00:12:01.298Z,101673.78
2022-11-10T00:14:46.490Z,101675.66
2022-11-10T00:17:14.435Z,101680.00
2022-11-10T00:19:42.140Z,101686.44
2022-11-10T00:22:09.848Z,101671.31
2022-11-10T00:24:38.832Z,101675.88
2022-11-10T00:27:06.493Z,101679.41
2022-11-10T00:29:34.151Z,101686.06
2022-11-10T00:32:01.827Z,101680.44
2022-11-10T00:34:29.457Z,101685.22
2022-11-10T00:36:57.133Z,101687.09
2022-11-10T00:39:24.799Z,101693.75
2022-11-10T00:41:53.880Z,101696.47
2022-11-10T00:44:21.525Z,101702.06
2022-11-10T00:46:49.167Z,101713.91
2022-11-10T00:49:17.009Z,101717.44
2022-11-10T00:51:44.700Z,101720.34
2022-11-10T00:54:12.507Z,101714.13
2022-11-10T00:56:40.176Z,101719.75
2022-11-10T00:59:09.241Z,101716.22
2022-11-10T01:01:37.195Z,101718.91
2022-11-10T01:04:05.173Z,101714.56
2022-11-10T01:06:32.920Z,101710.19
2022-11-10T01:09:00.600Z,101712.91
2022-11-10T01:11:29.369Z,101708.56
2022-11-10T01:13:57.895Z,101712.50
2022-11-10T01:16:28.487Z,101706.28
2022-11-10T01:18:57.950Z,101714.38
2022-11-10T01:21:26.810Z,101720.00
2022-11-10T01:23:54.771Z,101725.38
2022-11-10T01:26:22.690Z,101726.44
2022-11-10T01:28:51.125Z,101735.34
2022-11-10T01:31:20.942Z,101744.47
2022-11-10T01:33:50.171Z,101748.22
2022-11-10T01:36:17.837Z,101758.19
2022-11-10T01:38:45.632Z,101758.41
2022-11-10T01:41:15.054Z,101749.47
2022-11-10T01:43:43.209Z,101753.00
2022-11-10T01:46:12.372Z,101759.44
2022-11-10T01:48:44.998Z,101762.97
2022-11-10T01:51:19.392Z,101759.44
2022-11-10T01:53:51.661Z,101755.09
2022-11-10T01:56:20.192Z,101754.25
2022-11-10T01:58:52.466Z,101758.63
2022-11-10T02:01:20.302Z,101752.59
2022-11-10T02:03:51.668Z,101754.25
2022-11-10T02:06:26.188Z,101751.78
2022-11-10T02:08:55.105Z,101750.13
2022-11-10T02:11:23.783Z,101750.94
2022-11-10T02:13:51.812Z,101752.00
2022-11-10T02:16:20.507Z,101761.13
2022-11-10T02:18:48.922Z,101748.69
2022-11-10T02:21:19.970Z,101753.25
2022-11-10T02:23:50.024Z,101747.03
2022-11-10T02:26:21.632Z,101761.56
2022-11-10T02:28:49.314Z,101759.91
2022-11-10T02:31:17.167Z,101768.00
2022-11-10T02:33:44.854Z,101779.81
2022-11-10T02:36:13.110Z,101780.84
2022-11-10T02:38:42.191Z,101783.78
2022-11-10T02:41:10.244Z,101788.34
2022-11-10T02:43:39.398Z,101793.72
2022-11-10T02:46:07.482Z,101807.22
2022-11-10T02:48:35.141Z,101810.94
2022-11-10T02:51:02.802Z,101817.38
2022-11-10T02:53:30.490Z,101823.81
2022-11-10T02:55:59.518Z,101824.84
2022-11-10T02:58:27.178Z,101822.16
2022-11-10T03:00:54.898Z,101821.34
2022-11-10T03:03:22.972Z,101818.63
2022-11-10T03:05:51.069Z,101810.75
2022-11-10T03:08:18.703Z,101809.09
2022-11-10T03:10:46.366Z,101810.13
2022-11-10T03:13:15.470Z,101815.31
2022-11-10T03:15:43.182Z,101820.09
2022-11-10T03:18:10.808Z,101823.63
2022-11-10T03:20:38.471Z,101824.66
2022-11-10T03:23:06.630Z,101831.31
2022-11-10T03:25:34.885Z,101824.69
2022-11-10T03:28:02.527Z,101830.47
2022-11-10T03:30:31.539Z,101838.56
2022-11-10T03:32:59.304Z,101827.78
2022-11-10T03:35:27.229Z,101849.56
2022-11-10T03:37:54.874Z,101846.03
2022-11-10T03:40:22.586Z,101857.66
2022-11-10T03:42:50.248Z,101858.47
2022-11-10T03:45:18.048Z,101856.00
2022-11-10T03:47:48.312Z,101856.22
2022-11-10T03:50:16.553Z,101859.31
2022-11-10T03:52:46.019Z,101875.28
2022-11-10T03:55:16.425Z,101874.47
2022-11-10T03:57:44.478Z,101882.53
2022-11-10T04:00:13.800Z,101884.41
2022-11-10T04:02:41.489Z,101882.97
2022-11-10T04:05:24.915Z,101884.84
2022-11-10T04:08:15.884Z,101885.66
2022-11-10T04:10:43.952Z,101894.78
2022-11-10T04:13:29.399Z,101894.78
2022-11-10T04:15:57.158Z,101899.56
2022-11-10T04:18:29.575Z,101906.00
2022-11-10T04:20:59.943Z,101914.91
2022-11-10T04:23:28.907Z,101916.78
2022-11-10T04:26:16.745Z,101917.81
2022-11-10T04:28:45.534Z,101921.53
2022-11-10T04:31:14.548Z,101931.28
2022-11-10T04:33:43.497Z,101930.66
2022-11-10T04:36:14.207Z,101920.28
2022-11-10T04:38:42.308Z,101933.56
2022-11-10T04:41:10.469Z,101935.44
2022-11-10T04:43:38.375Z,101944.56
2022-11-10T04:46:07.682Z,101941.03
2022-11-10T04:48:36.811Z,101945.59
2022-11-10T04:51:06.012Z,101950.97
2022-11-10T04:53:35.338Z,101958.25
2022-11-10T04:56:03.006Z,101964.66
2022-11-10T04:58:30.667Z,101966.53
2022-11-10T05:00:58.394Z,101969.44
2022-11-10T05:03:26.916Z,101964.25
2022-11-10T05:05:54.627Z,101967.78
2022-11-10T05:08:22.337Z,101976.06
2022-11-10T05:10:51.313Z,101977.09
2022-11-10T05:13:19.178Z,101982.50
2022-11-10T05:15:47.057Z,101974.41
2022-11-10T05:18:14.707Z,102003.03
2022-11-10T05:20:42.478Z,101996.19
2022-11-10T05:23:27.588Z,101997.00
2022-11-10T05:25:56.616Z,102003.22
2022-11-10T05:28:24.562Z,101997.00
2022-11-10T05:30:52.246Z,102007.78
2022-11-10T05:33:20.387Z,102001.78
2022-11-10T05:35:50.113Z,102005.09
2022-11-10T05:38:17.904Z,101994.50
2022-11-10T05:40:45.544Z,102001.78
2022-11-10T05:43:15.303Z,101994.72
2022-11-10T05:45:43.596Z,101991.19
2022-11-10T05:48:11.219Z,101991.41
2022-11-10T05:50:39.002Z,101987.88
2022-11-10T05:53:06.645Z,101986.22
2022-11-10T05:55:34.331Z,101986.22
2022-11-10T05:58:01.997Z,102008.59
2022-11-10T06:00:32.301Z,102008.81
2022-11-10T06:03:02.037Z,102009.84
2022-11-10T06:05:31.665Z,102015.03
2022-11-10T06:08:00.105Z,102018.56
2022-11-10T06:10:28.203Z,102024.97
2022-11-10T06:12:56.208Z,102032.22
2022-11-10T06:15:24.592Z,102039.47
2022-11-10T06:17:54.291Z,102032.44
2022-11-10T06:20:21.947Z,102049.63
2022-11-10T06:22:59.961Z,102041.78
2022-11-10T06:25:28.303Z,102053.38
2022-11-10T06:27:56.013Z,102057.97
2022-11-10T06:30:24.046Z,102057.97
2022-11-10T06:32:53.094Z,102060.66
2022-11-10T06:35:21.550Z,102060.84
2022-11-10T06:37:58.681Z,102059.81
2022-11-10T06:40:26.665Z,102074.53
2022-11-10T06:42:54.351Z,102068.31
2022-11-10T06:45:22.513Z,102083.44
2022-11-10T06:47:50.185Z,102085.50
2022-11-10T06:50:19.242Z,102091.94
2022-11-10T06:52:54.941Z,102100.84
2022-11-10T06:55:22.649Z,102103.75
2022-11-10T06:57:50.551Z,102104.56
2022-11-10T07:00:19.014Z,102107.28
2022-11-10T07:02:46.667Z,102109.13
2022-11-10T07:05:15.556Z,102114.53
2022-11-10T07:07:44.599Z,102121.78
2022-11-10T07:10:12.268Z,102116.59
2022-11-10T07:12:40.020Z,102119.91
2022-11-10T07:15:09.019Z,102134.81
2022-11-10T07:17:40.803Z,102126.94
2022-11-10T07:20:10.199Z,102130.66
2022-11-10T07:22:37.816Z,102139.38
2022-11-10T07:25:07.594Z,102147.25
2022-11-10T07:27:35.257Z,102144.56
2022-11-10T07:30:03.412Z,102155.13
2022-11-10T07:32:31.106Z,102159.69
2022-11-10T07:34:58.758Z,102161.16
2022-11-10T07:37:26.452Z,102178.38
2022-11-10T07:39:54.074Z,102178.56
2022-11-10T07:42:23.042Z,102176.06
2022-11-10T07:44:50.689Z,102177.72
2022-11-10T07:47:18.338Z,102185.81
2022-11-10T07:49:46.021Z,102183.94
2022-11-10T07:52:13.706Z,102176.91
2022-11-10T07:54:41.413Z,102177.53
2022-11-10T07:57:09.023Z,102177.53
2022-11-10T07:59:38.019Z,102179.19
2022-11-10T08:02:05.762Z,102190.81
2022-11-10T08:04:33.797Z,102193.69
2022-11-10T08:07:01.550Z,102200.75
2022-11-10T08:09:29.407Z,102212.56
2022-11-10T08:11:57.067Z,102206.34
2022-11-10T08:14:24.732Z,102208.19
2022-11-10T08:16:53.889Z,102207.38
2022-11-10T08:19:21.576Z,102224.38
2022-11-10T08:21:49.213Z,102227.25
2022-11-10T08:24:16.938Z,102226.44
2022-11-10T08:26:44.597Z,102229.97
2022-11-10T08:29:12.450Z,102223.94
2022-11-10T08:31:40.167Z,102233.69
2022-11-10T08:34:09.221Z,102232.84
2022-11-10T08:36:38.103Z,102232.84
2022-11-10T08:39:06.364Z,102230.34
2022-11-10T08:41:34.057Z,102234.72
2022-11-10T08:44:01.698Z,102243.63
2022-11-10T08:46:29.386Z,102240.72
2022-11-10T08:48:57.126Z,102243.66
2022-11-10T08:51:26.157Z,102238.28
2022-11-10T08:53:53.857Z,102248.88
2022-11-10T08:56:21.537Z,102239.31
2022-11-10T08:58:53.308Z,102244.50
2022-11-10T09:01:21.600Z,102248.88
2022-11-10T09:03:49.272Z,102257.78
2022-11-10T09:06:16.949Z,102257.16
2022-11-10T09:08:45.957Z,102260.69
2022-11-10T09:11:13.599Z,102265.88
2022-11-10T09:13:41.366Z,102259.66
2022-11-10T09:16:09.362Z,102270.22
2022-11-10T09:18:37.112Z,102269.41
2022-11-10T09:21:11.631Z,102269.84
2022-11-10T09:23:39.322Z,102279.63
2022-11-10T09:26:08.460Z,102277.81
2022-11-10T09:28:36.143Z,102279.44
2022-11-10T09:31:03.853Z,102285.22
2022-11-10T09:33:31.523Z,102291.44
2022-11-10T09:36:00.147Z,102275.28
2022-11-10T09:38:27.835Z,102288.75
2022-11-10T09:41:02.625Z,102280.66
2022-11-10T09:43:38.767Z,102280.47
2022-11-10T09:46:15.405Z,102280.66
2022-11-10T09:48:48.530Z,102280.06
2022-11-10T09:51:20.529Z,102284.63
2022-11-10T09:53:52.124Z,102294.63
2022-11-10T09:56:27.046Z,102299.81
2022-11-10T09:58:56.187Z,102296.28
2022-11-10T10:01:33.437Z,102294.44
2022-11-10T10:04:14.282Z,102287.38
2022-11-10T10:07:09.553Z,102290.91
2022-11-10T10:09:46.375Z,102290.91
2022-11-10T10:12:24.662Z,102289.50
2022-11-10T10:15:12.794Z,102289.28
2022-11-10T10:17:48.705Z,102299.22
2022-11-10T10:20:23.577Z,102306.31
2022-11-10T10:23:04.177Z,102297.44
2022-11-10T10:25:32.673Z,102302.59
2022-11-10T10:28:06.634Z,102305.09
2022-11-10T10:30:35.664Z,102311.03
2022-11-10T10:33:14.379Z,102319.03
2022-11-10T10:35:43.357Z,102324.91
2022-11-10T10:38:21.939Z,102319.50
2022-11-10T10:40:51.954Z,102329.69
2022-11-10T10:43:19.768Z,102330.69
2022-11-10T10:46:05.113Z,102339.81
2022-11-10T10:48:32.767Z,102343.78
2022-11-10T10:51:00.417Z,102353.13
2022-11-10T10:53:28.415Z,102355.38
2022-11-10T10:56:00.809Z,102350.41
2022-11-10T10:58:30.132Z,102352.72
2022-11-10T11:01:06.063Z,102353.34
2022-11-10T11:03:43.834Z,102343.38
2022-11-10T11:06:23.170Z,102342.34
2022-11-10T11:09:00.447Z,102344.66
2022-11-10T11:11:30.983Z,102346.13
2022-11-10T11:14:21.182Z,102349.66
2022-11-10T11:16:52.940Z,102354.66
2022-11-10T11:19:22.591Z,102350.09
2022-11-10T11:22:27.645Z,102339.28
2022-11-10T11:25:02.809Z,102346.78
2022-11-10T11:27:38.745Z,102351.34
2022-11-10T11:30:10.819Z,102342.41
2022-11-10T11:33:03.324Z,102349.91
2022-11-10T11:35:40.207Z,102352.41
2022-11-10T11:38:13.996Z,102344.94
2022-11-10T11:40:49.396Z,102348.06
2022-11-10T11:43:40.759Z,102361.38
2022-11-10T11:46:18.666Z,102377.59
2022-11-10T11:48:56.442Z,102374.91
2022-11-10T11:51:29.050Z,102377.19
2022-11-10T11:54:14.673Z,102385.28
2022-11-10T11:56:45.346Z,102379.94
2022-11-10T11:59:32.161Z,102385.56
2022-11-10T12:02:22.111Z,102385.78
2022-11-10T12:05:02.093Z,102391.19
2022-11-10T12:07:45.107Z,102392.84
2022-11-10T12:10:27.372Z,102400.75
2022-11-10T12:13:22.730Z,102393.47
2022-11-10T12:15:55.873Z,102400.56
2022-11-10T12:18:32.354Z,102411.38
2022-11-10T12:21:13.825Z,102413.25
2022-11-10T12:23:55.464Z,102404.94
2022-11-10T12:26:36.157Z,102414.69
2022-11-10T12:29:13.230Z,102415.78
2022-11-10T12:31:44.809Z,102406.63
2022-11-10T12:34:20.998Z,102421.78
2022-11-10T12:36:52.311Z,102408.69
2022-11-10T12:39:24.355Z,102414.72
2022-11-10T12:41:55.593Z,102419.09
2022-11-10T12:44:31.666Z,102421.38
2022-11-10T12:47:04.483Z,102417.06
2022-11-10T12:49:36.522Z,102404.22
2022-11-10T12:52:14.411Z,102405.06
2022-11-10T12:54:43.363Z,102409.81
2022-11-10T12:57:16.147Z,102405.69
2022-11-10T12:59:54.396Z,102408.78
2022-11-10T13:02:28.340Z,102411.25
2022-11-10T13:05:32.410Z,102414.81
2022-11-10T13:08:15.908Z,102416.50
2022-11-10T13:10:53.814Z,102419.19
2022-11-10T13:13:22.727Z,102406.72
2022-11-10T13:15:54.209Z,102409.22
2022-11-10T13:19:00.193Z,102406.53
2022-11-10T13:22:13.955Z,102425.00
2022-11-10T13:24:44.296Z,102422.72
2022-11-10T13:27:13.432Z,102423.97
2022-11-10T13:29:58.220Z,102425.00
2022-11-10T13:32:28.615Z,102420.03
2022-11-10T13:35:17.082Z,102432.91
2022-11-10T13:37:51.356Z,102437.28
2022-11-10T13:40:31.037Z,102425.00
2022-11-10T13:43:25.042Z,102433.34
2022-11-10T13:46:04.817Z,102442.28
2022-11-10T13:48:48.315Z,102434.38
2022-11-10T13:51:26.289Z,102437.28
2022-11-10T13:54:06.905Z,102433.13
2022-11-10T13:56:52.555Z,102427.31
2022-11-10T13:59:22.672Z,102422.31
2022-11-10T14:01:50.410Z,102413.78
2022-11-10T14:04:40.771Z,102413.16
2022-11-10T14:07:16.930Z,102413.16
2022-11-10T14:09:48.988Z,102414.22
2022-11-10T14:12:28.134Z,102414.22
2022-11-10T14:15:00.969Z,102414.22
2022-11-10T14:17:31.778Z,102410.69
2022-11-10T14:20:00.073Z,102417.13
2022-11-10T14:22:34.321Z,102419.63
2022-11-10T14:25:06.499Z,102414.22
2022-11-10T14:27:38.403Z,102424.81
2022-11-10T14:30:10.914Z,102434.59
2022-11-10T14:32:38.760Z,102433.75
2022-11-10T14:35:07.924Z,102434.59
2022-11-10T14:37:36.765Z,102432.50
2022-11-10T14:40:05.249Z,102426.06
2022-11-10T14:42:34.933Z,102415.66
2022-11-10T14:45:17.342Z,102412.13
2022-11-10T14:47:53.124Z,102416.06
2022-11-10T14:50:23.790Z,102415.22
2022-11-10T14:52:55.026Z,102418.16
2022-11-10T14:55:25.219Z,102422.53
2022-11-10T14:57:58.418Z,102430.66
2022-11-10T15:00:28.913Z,102437.09
2022-11-10T15:02:58.953Z,102444.38
2022-11-10T15:05:26.942Z,102442.50
2022-11-10T15:07:57.144Z,102443.53
2022-11-10T15:10:26.865Z,102453.50
2022-11-10T15:13:02.484Z,102448.09
2022-11-10T15:15:32.517Z,102451.84
2022-11-10T15:18:00.236Z,102447.28
2022-11-10T15:20:29.804Z,102444.78
2022-11-10T15:22:59.776Z,102441.88
2022-11-10T15:25:35.636Z,102453.50
2022-11-10T15:28:07.041Z,102461.63
2022-11-10T15:30:36.281Z,102451.63
2022-11-10T15:33:11.210Z,102450.81
2022-11-10T15:35:38.896Z,102456.22
2022-11-10T15:38:08.149Z,102454.53
2022-11-10T15:40:44.882Z,102464.53
2022-11-10T15:43:15.064Z,102472.63
2022-11-10T15:45:45.115Z,102471.78
2022-11-10T15:48:15.090Z,102477.19
2022-11-10T15:50:43.610Z,102483.63
2022-11-10T15:53:15.611Z,102483.63
2022-11-10T15:55:44.246Z,102489.03
2022-11-10T15:58:17.970Z,102489.03
2022-11-10T16:00:47.063Z,102490.91
2022-11-10T16:03:18.109Z,102483.63
2022-11-10T16:05:46.237Z,102481.13
2022-11-10T16:08:15.826Z,102480.31
2022-11-10T16:10:45.330Z,102479.47
2022-11-10T16:13:16.323Z,102484.25
2022-11-10T16:15:45.240Z,102491.94
2022-11-10T16:18:16.768Z,102486.75
2022-11-10T16:20:44.541Z,102489.44
2022-11-10T16:23:12.245Z,102496.53
2022-11-10T16:25:40.883Z,102487.59
2022-11-10T16:28:10.688Z,102483.00
2022-11-10T16:30:38.718Z,102488.41
2022-11-10T16:33:06.362Z,102497.34
2022-11-10T16:35:35.720Z,102500.25
2022-11-10T16:38:19.918Z,102493.00
2022-11-10T16:40:55.513Z,102496.31
2022-11-10T16:43:23.285Z,102504.44
2022-11-10T16:45:53.360Z,102491.28
2022-11-10T16:48:24.068Z,102509.41
2022-11-10T16:50:55.090Z,102514.59
2022-11-10T16:53:24.641Z,102505.22
2022-11-10T16:55:52.284Z,102523.34
2022-11-10T16:58:20.210Z,102524.38
2022-11-10T17:00:49.378Z,102527.09
2022-11-10T17:03:21.325Z,102536.22
2022-11-10T17:05:49.421Z,102539.13
2022-11-10T17:08:22.619Z,102542.47
2022-11-10T17:10:51.037Z,102541.19
2022-11-10T17:13:19.500Z,102542.03
2022-11-10T17:15:47.941Z,102540.38
2022-11-10T17:18:19.660Z,102548.47
2022-11-10T17:20:49.794Z,102553.88
2022-11-10T17:23:22.572Z,102551.38
2022-11-10T17:25:51.473Z,102562.38
2022-11-10T17:28:23.952Z,102559.88
2022-11-10T17:30:52.510Z,102558.84
2022-11-10T17:33:21.597Z,102551.97
2022-11-10T17:35:51.658Z,102564.88
2022-11-10T17:38:24.268Z,102574.84
2022-11-10T17:40:52.929Z,102576.94
2022-11-10T17:43:21.114Z,102577.13
2022-11-10T17:45:49.046Z,102576.28
2022-11-10T17:48:16.759Z,102581.50
2022-11-10T17:50:46.809Z,102580.25
2022-11-10T17:53:19.496Z,102573.19
2022-11-10T17:55:49.514Z,102566.31
2022-11-10T17:58:18.073Z,102569.44
2022-11-10T18:00:46.163Z,102565.91
2022-11-10T18:03:15.545Z,102573.81
2022-11-10T18:05:43.704Z,102576.53
2022-11-10T18:08:11.749Z,102590.25
2022-11-10T18:10:42.800Z,102592.94
2022-11-10T18:13:11.962Z,102600.41
2022-11-10T18:15:43.052Z,102601.44
2022-11-10T18:18:14.414Z,102596.25
2022-11-10T18:20:42.821Z,102593.34
2022-11-10T18:23:12.387Z,102600.81
2022-11-10T18:25:41.003Z,102604.97
2022-11-10T18:28:09.373Z,102602.47
2022-11-10T18:30:38.588Z,102607.91
2022-11-10T18:33:07.031Z,102612.91
2022-11-10T18:35:37.747Z,102613.56
2022-11-10T18:38:06.158Z,102612.53
2022-11-10T18:40:34.343Z,102614.19
2022-11-10T18:43:07.121Z,102619.59
2022-11-10T18:45:36.354Z,102623.97
2022-11-10T18:48:05.901Z,102616.06
2022-11-10T18:50:34.256Z,102607.53
2022-11-10T18:53:04.077Z,102617.94
2022-11-10T18:55:32.066Z,102614.00
2022-11-10T18:57:59.917Z,102621.06
2022-11-10T19:00:27.550Z,102626.47
2022-11-10T19:02:55.970Z,102621.91
2022-11-10T19:05:25.290Z,102620.03
2022-11-10T19:07:52.910Z,102623.75
2022-11-10T19:10:20.630Z,102622.09
2022-11-10T19:12:48.292Z,102630.84
2022-11-10T19:15:16.106Z,102605.88
2022-11-10T19:17:43.873Z,102608.78
2022-11-10T19:20:14.643Z,102605.25
2022-11-10T19:22:44.003Z,102608.75
2022-11-10T19:25:11.771Z,102611.47
2022-11-10T19:27:39.452Z,102619.75
2022-11-10T19:30:07.969Z,102618.94
2022-11-10T19:32:35.695Z,102601.41
2022-11-10T19:35:04.319Z,102608.50
2022-11-10T19:37:34.891Z,102607.88
2022-11-10T19:40:04.258Z,102604.94
2022-11-10T19:42:32.953Z,102615.34
2022-11-10T19:45:01.576Z,102620.56
2022-11-10T19:47:30.610Z,102626.16
2022-11-10T19:49:58.277Z,102629.91
2022-11-10T19:52:25.927Z,102633.00
2022-11-10T19:54:53.598Z,102643.81
2022-11-10T19:57:23.174Z,102646.91
2022-11-10T19:59:50.895Z,102646.06
2022-11-10T20:02:18.814Z,102657.91
2022-11-10T20:05:04.144Z,102656.22
2022-11-10T20:07:49.652Z,102662.03
2022-11-10T20:10:18.009Z,102661.81
2022-11-10T20:12:46.985Z,102672.00
2022-11-10T20:15:14.963Z,102671.34
2022-11-10T20:17:42.737Z,102679.66
2022-11-10T20:20:10.550Z,102676.31
2022-11-10T20:22:38.192Z,102673.81
2022-11-10T20:25:06.360Z,102670.28
2022-11-10T20:27:34.063Z,102675.88
2022-11-10T20:30:03.154Z,102679.59
2022-11-10T20:32:32.174Z,102681.47
2022-11-10T20:35:00.647Z,102674.59
2022-11-10T20:37:28.367Z,102676.47
2022-11-10T20:39:56.046Z,102683.09
2022-11-10T20:42:23.688Z,102684.97
2022-11-10T20:44:51.361Z,102680.59
2022-11-10T20:47:20.432Z,102677.25
2022-11-10T20:49:48.207Z,102684.50
2022-11-10T20:52:15.942Z,102694.66
2022-11-10T20:54:44.369Z,102702.56
2022-11-10T20:57:12.178Z,102700.06
2022-11-10T20:59:39.910Z,102694.03
2022-11-10T21:02:08.043Z,102692.34
2022-11-10T21:04:41.864Z,102690.50
2022-11-10T21:07:10.986Z,102677.19
2022-11-10T21:09:38.704Z,102674.69
2022-11-10T21:12:24.363Z,102675.53
2022-11-10T21:14:52.088Z,102669.66
2022-11-10T21:17:19.797Z,102680.47
2022-11-10T21:19:49.428Z,102675.25
2022-11-10T21:22:17.059Z,102670.91
2022-11-10T21:24:44.710Z,102668.19
2022-11-10T21:27:12.704Z,102686.25
2022-11-10T21:29:42.232Z,102690.00
2022-11-10T21:32:09.878Z,102691.84
2022-11-10T21:34:37.581Z,102698.25
2022-11-10T21:37:06.668Z,102697.25
2022-11-10T21:39:34.374Z,102693.03
2022-11-10T21:42:02.027Z,102684.09
2022-11-10T21:44:29.704Z,102686.81
2022-11-10T21:46:57.372Z,102691.56
2022-11-10T21:49:25.085Z,102693.44
2022-11-10T21:51:53.486Z,102695.28
2022-11-10T21:54:22.727Z,102695.50
2022-11-10T21:56:50.489Z,102698.19
2022-11-10T21:59:19.201Z,102697.34
2022-11-10T22:01:47.055Z,102706.47
2022-11-10T22:04:15.391Z,102698.56
2022-11-10T22:07:00.804Z,102703.13
2022-11-10T22:09:47.341Z,102711.22
2022-11-10T22:12:32.478Z,102708.72
2022-11-10T22:15:17.799Z,102710.59
2022-11-10T22:18:05.579Z,102710.78
2022-11-10T22:20:33.274Z,102719.06
2022-11-10T22:23:00.965Z,102723.63
2022-11-10T22:25:29.966Z,102727.16
2022-11-10T22:27:57.676Z,102723.81
2022-11-10T22:30:25.352Z,102728.38
2022-11-10T22:32:54.148Z,102733.97
2022-11-10T22:35:39.551Z,102744.78
2022-11-10T22:38:07.717Z,102744.13
2022-11-10T22:40:54.357Z,102755.75
2022-11-10T22:43:39.874Z,102755.94
2022-11-10T22:46:07.533Z,102754.28
2022-11-10T22:48:35.256Z,102764.03
2022-11-10T22:51:02.958Z,102758.84
2022-11-10T22:53:31.212Z,102753.63
2022-11-10T22:56:01.570Z,102772.53
2022-11-10T22:58:29.195Z,102769.94
2022-11-10T23:01:04.829Z,102788.06
2022-11-10T23:03:32.782Z,102789.94
2022-11-10T23:06:00.556Z,102790.97
2022-11-10T23:08:28.678Z,102787.63
2022-11-10T23:11:02.347Z,102787.81
2022-11-10T23:13:30.038Z,102785.94
2022-11-10T23:16:02.282Z,102788.19
2022-11-10T23:18:30.743Z,102792.75
2022-11-10T23:20:59.956Z,102797.94
2022-11-10T23:23:28.773Z,102804.19
2022-11-10T23:25:58.026Z,102800.66
2022-11-10T23:28:27.712Z,102798.13
2022-11-10T23:30:55.916Z,102803.53
2022-11-10T23:33:26.582Z,102799.16
2022-11-10T23:35:56.412Z,102811.81
2022-11-10T23:38:24.058Z,102804.75
2022-11-10T23:40:55.600Z,102795.81
2022-11-10T23:43:23.525Z,102794.13
2022-11-10T23:46:06.403Z,102785.59
2022-11-10T23:48:34.948Z,102796.84
2022-11-10T23:51:02.703Z,102800.75
2022-11-10T23:53:30.549Z,102808.00
2022-11-10T23:55:59.236Z,102805.50
2022-11-10T23:58:27.271Z,102820.66
